Time;durP1;ratioP1;P1;durP2;ratioP2;P2;SDS_P1;SDS_P2;PMS_P1;PMS_P2;Temp;Humidity;BMP_temperature;BMP_pressure;BME280_temperature;BME280_humidity;BME280_pressure;Samples;Min_cycle;Max_cycle;Signal;HPM_P1;HPM_P2
2022/06/17 00:01:04;;;;;;;;;;;22.50;66.40;;;;;;5095737;28;20589;-82
2022/06/17 00:03:32;;;;;;;;;;;22.40;66.40;;;;;;5077898;28;20413;-83
2022/06/17 00:06:00;;;;;;;;;;;22.40;66.40;;;;;;5085737;28;20026;-83
2022/06/17 00:08:32;;;;;;;;;;;22.40;66.50;;;;;;5074987;28;20305;-83
2022/06/17 00:10:59;;;;;;;;;;;22.40;66.40;;;;;;5077290;28;19924;-83
2022/06/17 00:13:26;;;;;;;;;;;22.30;66.60;;;;;;5094292;28;19956;-82
2022/06/17 00:15:54;;;;;;;;;;;22.30;66.60;;;;;;5094415;28;20101;-83
2022/06/17 00:18:21;;;;;;;;;;;22.20;66.60;;;;;;5073149;28;20009;-83
2022/06/17 00:20:50;;;;;;;;;;;22.20;66.80;;;;;;5094232;28;20386;-83
2022/06/17 00:23:18;;;;;;;;;;;22.20;66.90;;;;;;5093780;28;19931;-83
2022/06/17 00:25:47;;;;;;;;;;;22.20;67.80;;;;;;5093792;28;19931;-83
2022/06/17 00:28:19;;;;;;;;;;;22.10;67.10;;;;;;5093360;28;19931;-83
2022/06/17 00:30:47;;;;;;;;;;;22.10;67.80;;;;;;5095086;28;20005;-83
2022/06/17 00:33:18;;;;;;;;;;;22.10;67.20;;;;;;5092684;28;19928;-83
2022/06/17 00:35:46;;;;;;;;;;;22.00;67.20;;;;;;5095369;28;19942;-83
2022/06/17 00:38:14;;;;;;;;;;;22.00;67.30;;;;;;5074923;28;20025;-83
2022/06/17 00:40:41;;;;;;;;;;;22.00;67.40;;;;;;5094411;28;19924;-83
2022/06/17 00:43:13;;;;;;;;;;;21.90;67.20;;;;;;5070600;28;19978;-83
2022/06/17 00:45:45;;;;;;;;;;;21.90;67.30;;;;;;5076709;28;19928;-82
2022/06/17 00:48:16;;;;;;;;;;;21.90;67.30;;;;;;5095907;28;20382;-83
2022/06/17 00:50:45;;;;;;;;;;;21.80;67.30;;;;;;5069525;28;19971;-83
2022/06/17 00:53:18;;;;;;;;;;;21.80;67.30;;;;;;5074002;28;19928;-81
2022/06/17 00:55:51;;;;;;;;;;;21.80;67.30;;;;;;5074247;28;19951;-81
2022/06/17 00:58:22;;;;;;;;;;;21.80;67.40;;;;;;5076895;28;19928;-81
2022/06/17 01:00:52;;;;;;;;;;;21.70;67.30;;;;;;5072147;28;20386;-82
2022/06/17 01:03:21;;;;;;;;;;;21.70;67.50;;;;;;5077196;28;19924;-81
2022/06/17 01:05:50;;;;;;;;;;;21.70;67.50;;;;;;5077068;28;19924;-81
2022/06/17 01:09:57;;;;;;;;;;;21.60;67.50;;;;;;5093918;28;20416;-81
2022/06/17 01:11:07;;;;;;;;;;;21.60;67.60;;;;;;5074643;28;19928;-81
2022/06/17 01:13:37;;;;;;;;;;;21.60;67.60;;;;;;5074422;28;20369;-81
2022/06/17 01:16:04;;;;;;;;;;;21.50;67.70;;;;;;5077015;28;19955;-81
2022/06/17 01:18:34;;;;;;;;;;;21.50;67.70;;;;;;5079918;28;19947;-82
2022/06/17 01:21:11;;;;;;;;;;;21.50;67.70;;;;;;5074113;28;19924;-81
2022/06/17 01:23:48;;;;;;;;;;;21.50;67.80;;;;;;5095995;28;19931;-81
2022/06/17 01:26:15;;;;;;;;;;;21.40;67.70;;;;;;5093525;28;19988;-81
2022/06/17 01:28:42;;;;;;;;;;;21.40;67.60;;;;;;5094909;28;19924;-81
2022/06/17 01:31:11;;;;;;;;;;;21.40;67.60;;;;;;5084925;28;20508;-81
2022/06/17 01:33:40;;;;;;;;;;;21.40;67.70;;;;;;5086691;28;20341;-81
2022/06/17 01:36:10;;;;;;;;;;;21.30;67.80;;;;;;5087967;28;20038;-81
2022/06/17 01:38:38;;;;;;;;;;;21.30;67.70;;;;;;5099086;28;19955;-81
2022/06/17 01:41:08;;;;;;;;;;;21.30;67.70;;;;;;5101519;28;19971;-81
2022/06/17 01:43:40;;;;;;;;;;;21.20;67.50;;;;;;5095777;28;19931;-81
2022/06/17 01:46:16;;;;;;;;;;;21.20;67.50;;;;;;5093520;28;20380;-82
2022/06/17 01:48:46;;;;;;;;;;;21.20;67.50;;;;;;5108078;28;19962;-81
2022/06/17 01:51:17;;;;;;;;;;;;;;;;;;5095508;28;19924;-81
2022/06/17 01:53:46;;;;;;;;;;;21.10;67.00;;;;;;5100473;28;20000;-81
2022/06/17 01:56:20;;;;;;;;;;;21.10;67.50;;;;;;5080641;28;19928;-81
2022/06/17 01:58:49;;;;;;;;;;;21.00;67.40;;;;;;5098652;28;19924;-82
2022/06/17 02:01:19;;;;;;;;;;;21.00;67.40;;;;;;5074168;28;19935;-81
2022/06/17 02:03:48;;;;;;;;;;;21.00;67.50;;;;;;5078743;28;19924;-81
2022/06/17 02:06:19;;;;;;;;;;;20.90;67.40;;;;;;5077649;28;19931;-81
2022/06/17 02:08:46;;;;;;;;;;;20.90;67.50;;;;;;5097028;28;19932;-81
2022/06/17 02:11:16;;;;;;;;;;;20.90;67.50;;;;;;5079462;28;19960;-81
2022/06/17 02:13:50;;;;;;;;;;;20.80;67.50;;;;;;5075066;28;20525;-81
2022/06/17 02:16:29;;;;;;;;;;;20.80;67.60;;;;;;5078177;28;19963;-81
2022/06/17 02:19:16;;;;;;;;;;;20.80;67.60;;;;;;5096489;28;20045;-81
2022/06/17 02:21:45;;;;;;;;;;;20.70;67.50;;;;;;5066058;28;20035;-81
2022/06/17 02:24:12;;;;;;;;;;;20.70;67.60;;;;;;5075650;28;19931;-81
2022/06/17 02:26:42;;;;;;;;;;;20.70;67.60;;;;;;5099657;28;19935;-81
2022/06/17 02:29:11;;;;;;;;;;;20.60;67.60;;;;;;5096564;28;20157;-81
2022/06/17 02:31:38;;;;;;;;;;;20.60;67.70;;;;;;5076524;28;19928;-81
2022/06/17 02:34:06;;;;;;;;;;;20.60;67.70;;;;;;5097628;28;19968;-81
2022/06/17 02:36:36;;;;;;;;;;;20.60;67.60;;;;;;5075713;28;19946;-81
2022/06/17 02:39:05;;;;;;;;;;;20.50;67.60;;;;;;5069956;28;20305;-82
2022/06/17 02:41:33;;;;;;;;;;;20.50;67.80;;;;;;5074994;28;19942;-82
2022/06/17 02:44:03;;;;;;;;;;;20.50;67.70;;;;;;5066489;28;19924;-82
2022/06/17 02:46:32;;;;;;;;;;;20.40;67.70;;;;;;5091797;28;20022;-82
2022/06/17 02:49:00;;;;;;;;;;;20.40;67.80;;;;;;5076710;28;19924;-82
2022/06/17 02:51:30;;;;;;;;;;;20.40;67.80;;;;;;5073250;28;20461;-82
2022/06/17 02:53:58;;;;;;;;;;;20.40;67.90;;;;;;5077761;28;19932;-83
2022/06/17 02:56:29;;;;;;;;;;;20.30;67.80;;;;;;5075183;28;20421;-82
2022/06/17 02:59:05;;;;;;;;;;;20.30;67.90;;;;;;5072039;28;19942;-82
2022/06/17 03:01:36;;;;;;;;;;;20.30;67.90;;;;;;5072177;28;19928;-82
2022/06/17 03:04:19;;;;;;;;;;;20.20;67.80;;;;;;5079043;28;19924;-82
2022/06/17 03:06:47;;;;;;;;;;;20.20;68.00;;;;;;5077674;28;19924;-82
2022/06/17 03:09:16;;;;;;;;;;;20.20;68.00;;;;;;5074117;28;19931;-82
2022/06/17 03:11:44;;;;;;;;;;;20.10;68.00;;;;;;5075976;28;20539;-82
2022/06/17 03:14:13;;;;;;;;;;;20.10;68.10;;;;;;5072056;28;20015;-82
2022/06/17 03:16:42;;;;;;;;;;;20.10;68.10;;;;;;5076625;28;20406;-82
2022/06/17 03:19:14;;;;;;;;;;;20.10;68.20;;;;;;5093596;28;19950;-82
2022/06/17 03:21:42;;;;;;;;;;;20.00;68.20;;;;;;5072246;28;20373;-82
2022/06/17 03:24:13;;;;;;;;;;;20.00;68.20;;;;;;5076140;28;21014;-82
2022/06/17 03:26:43;;;;;;;;;;;20.00;68.20;;;;;;5076184;28;20363;-82
2022/06/17 03:29:11;;;;;;;;;;;19.90;68.10;;;;;;5069336;28;19936;-82
2022/06/17 03:31:42;;;;;;;;;;;19.90;68.20;;;;;;5094030;28;19932;-82
2022/06/17 03:34:14;;;;;;;;;;;19.90;68.20;;;;;;5075296;28;19932;-82
2022/06/17 03:36:45;;;;;;;;;;;19.80;68.20;;;;;;5076221;28;20397;-82
2022/06/17 03:39:15;;;;;;;;;;;19.80;68.20;;;;;;5071654;28;19939;-82
2022/06/17 03:41:46;;;;;;;;;;;19.80;68.20;;;;;;5070864;28;19924;-82
2022/06/17 03:44:15;;;;;;;;;;;19.70;68.20;;;;;;5090177;28;20299;-83
2022/06/17 03:46:49;;;;;;;;;;;19.70;68.20;;;;;;5081276;28;19924;-82
2022/06/17 03:49:19;;;;;;;;;;;19.70;68.20;;;;;;5075080;28;19982;-82
2022/06/17 03:51:47;;;;;;;;;;;19.60;68.90;;;;;;5090444;28;19924;-82
2022/06/17 03:54:15;;;;;;;;;;;19.60;68.30;;;;;;5075055;28;20395;-81
2022/06/17 03:56:51;;;;;;;;;;;19.60;68.40;;;;;;5076052;28;19924;-82
2022/06/17 03:59:21;;;;;;;;;;;19.60;68.50;;;;;;5072299;28;20310;-82
2022/06/17 04:01:55;;;;;;;;;;;19.50;68.40;;;;;;5070769;28;19935;-82
2022/06/17 04:04:23;;;;;;;;;;;19.50;68.40;;;;;;5080340;28;20007;-82
2022/06/17 04:06:52;;;;;;;;;;;19.50;68.50;;;;;;5075801;28;19924;-82
2022/06/17 04:09:25;;;;;;;;;;;19.50;68.50;;;;;;5071845;28;19963;-82
2022/06/17 04:11:57;;;;;;;;;;;19.40;68.50;;;;;;5074368;28;19999;-82
2022/06/17 04:14:27;;;;;;;;;;;19.40;68.50;;;;;;5068025;28;19928;-82
2022/06/17 04:17:00;;;;;;;;;;;19.40;68.60;;;;;;5074025;28;19934;-82
2022/06/17 04:19:30;;;;;;;;;;;19.40;68.60;;;;;;5074972;28;20002;-82
2022/06/17 04:22:00;;;;;;;;;;;19.30;68.60;;;;;;5089300;28;19924;-82
2022/06/17 04:24:29;;;;;;;;;;;19.30;68.70;;;;;;5075441;28;19932;-82
2022/06/17 04:27:20;;;;;;;;;;;19.30;68.70;;;;;;5094947;28;19932;-82
2022/06/17 04:29:49;;;;;;;;;;;19.30;68.80;;;;;;5066506;28;20011;-82
2022/06/17 04:32:20;;;;;;;;;;;19.30;68.80;;;;;;5075058;28;19967;-82
2022/06/17 04:34:50;;;;;;;;;;;19.20;68.80;;;;;;5077466;28;20390;-82
2022/06/17 04:37:20;;;;;;;;;;;19.20;68.90;;;;;;5077052;28;19924;-82
2022/06/17 04:40:03;;;;;;;;;;;19.20;68.90;;;;;;5092090;28;19924;-82
2022/06/17 04:42:41;;;;;;;;;;;19.20;69.00;;;;;;5078136;28;19931;-82
2022/06/17 04:45:17;;;;;;;;;;;19.10;69.00;;;;;;5076014;28;20305;-82
2022/06/17 04:47:48;;;;;;;;;;;19.10;69.00;;;;;;5099794;28;20355;-82
2022/06/17 04:50:20;;;;;;;;;;;19.10;69.10;;;;;;5073537;28;19931;-82
2022/06/17 04:52:51;;;;;;;;;;;19.00;69.10;;;;;;5079214;28;19924;-82
2022/06/17 04:55:43;;;;;;;;;;;19.00;69.10;;;;;;5092601;28;20523;-82
2022/06/17 04:58:23;;;;;;;;;;;19.00;69.90;;;;;;5085040;28;19924;-82
2022/06/17 05:01:15;;;;;;;;;;;19.00;69.40;;;;;;5094659;28;19931;-82
2022/06/17 05:03:49;;;;;;;;;;;19.00;69.60;;;;;;5080477;28;19932;-81
2022/06/17 05:06:25;;;;;;;;;;;18.90;69.50;;;;;;5085386;28;19991;-82
2022/06/17 05:08:57;;;;;;;;;;;18.90;69.60;;;;;;5086896;28;19984;-81
2022/06/17 05:11:26;;;;;;;;;;;18.90;69.70;;;;;;5092562;28;19931;-81
2022/06/17 05:13:55;;;;;;;;;;;18.90;69.70;;;;;;5085801;28;19939;-81
2022/06/17 05:16:23;;;;;;;;;;;18.90;69.60;;;;;;5088791;28;19931;-81
2022/06/17 05:18:54;;;;;;;;;;;18.80;69.20;;;;;;5085580;28;20799;-81
2022/06/17 05:21:23;;;;;;;;;;;18.80;69.30;;;;;;5086402;28;19924;-81
2022/06/17 05:23:56;;;;;;;;;;;18.80;69.50;;;;;;5087750;28;19924;-81
2022/06/17 05:26:25;;;;;;;;;;;18.70;69.40;;;;;;5080278;28;19932;-81
2022/06/17 05:28:54;;;;;;;;;;;18.70;69.50;;;;;;5080189;28;19924;-81
2022/06/17 05:31:23;;;;;;;;;;;18.70;69.60;;;;;;5085518;28;19930;-81
2022/06/17 05:33:57;;;;;;;;;;;18.70;70.50;;;;;;5086395;28;19934;-81
2022/06/17 05:36:25;;;;;;;;;;;18.70;69.90;;;;;;5086587;28;20414;-81
2022/06/17 05:38:54;;;;;;;;;;;18.60;70.10;;;;;;5079668;28;19946;-81
2022/06/17 05:41:23;;;;;;;;;;;18.50;70.80;;;;;;5082811;28;19924;-82
2022/06/17 05:43:50;;;;;;;;;;;18.50;71.30;;;;;;5085846;28;19935;-81
2022/06/17 05:46:25;;;;;;;;;;;18.40;71.90;;;;;;5083096;28;19925;-81
2022/06/17 05:49:16;;;;;;;;;;;18.40;72.20;;;;;;5100745;28;20097;-82
2022/06/17 05:52:18;;;;;;;;;;;18.40;72.30;;;;;;5037354;28;20324;-82
2022/06/17 05:55:01;;;;;;;;;;;18.40;72.70;;;;;;5077820;28;19924;-81
2022/06/17 05:57:29;;;;;;;;;;;18.40;72.90;;;;;;5080648;28;19924;-82
2022/06/17 05:59:56;;;;;;;;;;;18.40;72.90;;;;;;5082461;28;19932;-81
2022/06/17 06:02:23;;;;;;;;;;;18.40;72.80;;;;;;5089451;28;19947;-82
2022/06/17 06:05:14;;;;;;;;;;;18.40;73.00;;;;;;5090591;28;19924;-82
2022/06/17 06:07:42;;;;;;;;;;;18.50;73.10;;;;;;5079859;28;20411;-81
2022/06/17 06:10:10;;;;;;;;;;;18.50;73.10;;;;;;5081690;28;19924;-82
2022/06/17 06:12:57;;;;;;;;;;;18.50;73.30;;;;;;5080698;28;19930;-82
2022/06/17 06:15:30;;;;;;;;;;;18.50;73.20;;;;;;5079514;28;19924;-82
2022/06/17 06:18:15;;;;;;;;;;;18.50;73.60;;;;;;5096110;28;19931;-82
2022/06/17 06:20:43;;;;;;;;;;;18.60;73.60;;;;;;5077293;28;19950;-82
2022/06/17 06:23:10;;;;;;;;;;;18.60;73.50;;;;;;5093774;28;19931;-82
2022/06/17 06:25:39;;;;;;;;;;;18.60;73.50;;;;;;5078854;28;19924;-82
2022/06/17 06:28:11;;;;;;;;;;;18.60;73.60;;;;;;5090835;28;19924;-82
2022/06/17 06:30:38;;;;;;;;;;;18.70;73.80;;;;;;5077522;28;19932;-81
2022/06/17 06:33:05;;;;;;;;;;;18.70;73.80;;;;;;5098812;28;19924;-82
2022/06/17 06:35:34;;;;;;;;;;;18.70;73.80;;;;;;5075460;28;20052;-82
2022/06/17 06:38:05;;;;;;;;;;;18.70;73.80;;;;;;5092961;28;19924;-82
2022/06/17 06:40:36;;;;;;;;;;;18.70;73.90;;;;;;5080817;28;19928;-82
2022/06/17 06:43:03;;;;;;;;;;;18.80;74.00;;;;;;5079222;28;20017;-82
2022/06/17 06:45:50;;;;;;;;;;;18.80;74.10;;;;;;5096820;28;19930;-82
2022/06/17 06:48:19;;;;;;;;;;;18.80;74.10;;;;;;5071395;28;20534;-82
2022/06/17 06:50:50;;;;;;;;;;;18.80;74.10;;;;;;5073798;28;19925;-82
2022/06/17 06:53:19;;;;;;;;;;;18.80;74.20;;;;;;5073803;28;20011;-82
2022/06/17 06:55:53;;;;;;;;;;;18.90;74.30;;;;;;5075076;28;20559;-82
2022/06/17 06:58:23;;;;;;;;;;;18.90;74.30;;;;;;5076673;28;20053;-82
2022/06/17 07:00:55;;;;;;;;;;;18.90;74.50;;;;;;5099130;28;19930;-82
2022/06/17 07:03:22;;;;;;;;;;;18.90;74.50;;;;;;5077511;28;19939;-82
2022/06/17 07:05:50;;;;;;;;;;;19.00;74.60;;;;;;5096129;28;20376;-82
2022/06/17 07:08:20;;;;;;;;;;;19.00;74.50;;;;;;5073525;28;19950;-82
2022/06/17 07:10:48;;;;;;;;;;;19.00;74.50;;;;;;5097009;28;19924;-82
2022/06/17 07:13:15;;;;;;;;;;;19.00;74.60;;;;;;5092965;28;19924;-82
2022/06/17 07:15:44;;;;;;;;;;;19.00;74.70;;;;;;5081323;28;19923;-82
2022/06/17 07:18:12;;;;;;;;;;;19.00;74.60;;;;;;5096355;28;19931;-82
2022/06/17 07:20:42;;;;;;;;;;;19.00;74.60;;;;;;5097845;28;19946;-82
2022/06/17 07:23:10;;;;;;;;;;;19.10;74.70;;;;;;5090339;28;19924;-82
2022/06/17 07:25:39;;;;;;;;;;;19.10;74.90;;;;;;5095671;28;20375;-82
2022/06/17 07:28:07;;;;;;;;;;;19.10;74.90;;;;;;5093095;28;19932;-82
2022/06/17 07:30:35;;;;;;;;;;;19.10;74.90;;;;;;5097125;28;19924;-82
2022/06/17 07:33:02;;;;;;;;;;;19.20;75.00;;;;;;5097900;28;20003;-82
2022/06/17 07:35:29;;;;;;;;;;;19.20;74.90;;;;;;5091858;28;19928;-82
2022/06/17 07:40:47;;;;;;;;;;;19.20;75.10;;;;;;5093803;28;20417;-82
2022/06/17 07:43:15;;;;;;;;;;;19.20;75.10;;;;;;5091384;28;20417;-82
2022/06/17 07:45:42;;;;;;;;;;;19.30;75.10;;;;;;5095271;28;20542;-82
2022/06/17 07:48:11;;;;;;;;;;;19.20;75.10;;;;;;5091945;28;19924;-83
2022/06/17 07:50:38;;;;;;;;;;;19.30;75.20;;;;;;5090806;28;19956;-82
2022/06/17 07:53:05;;;;;;;;;;;19.30;75.00;;;;;;5095501;28;19931;-82
2022/06/17 07:55:32;;;;;;;;;;;19.30;75.00;;;;;;5090439;28;20462;-83
2022/06/17 07:58:00;;;;;;;;;;;19.30;75.00;;;;;;5091116;28;19924;-82
2022/06/17 08:00:28;;;;;;;;;;;19.30;75.00;;;;;;5072406;28;19939;-82
2022/06/17 08:02:57;;;;;;;;;;;19.40;75.10;;;;;;5092708;28;20027;-82
2022/06/17 08:05:24;;;;;;;;;;;19.40;75.10;;;;;;5091204;28;19928;-82
2022/06/17 08:07:50;;;;;;;;;;;19.40;75.10;;;;;;5073427;28;19924;-82
2022/06/17 08:10:19;;;;;;;;;;;19.40;75.10;;;;;;5090866;28;19963;-82
2022/06/17 08:12:47;;;;;;;;;;;19.40;75.40;;;;;;5088176;28;19924;-82
2022/06/17 08:15:17;;;;;;;;;;;19.40;75.10;;;;;;5092577;28;20565;-82
2022/06/17 08:17:48;;;;;;;;;;;19.40;75.10;;;;;;5094680;28;19973;-82
2022/06/17 08:20:16;;;;;;;;;;;19.50;75.20;;;;;;5095403;28;19989;-82
2022/06/17 08:22:43;;;;;;;;;;;19.40;75.10;;;;;;5096982;28;19985;-82
2022/06/17 08:25:10;;;;;;;;;;;19.50;75.80;;;;;;5094103;28;19924;-82
2022/06/17 08:27:43;;;;;;;;;;;19.50;75.20;;;;;;5091745;28;19935;-82
2022/06/17 08:30:11;;;;;;;;;;;19.50;75.20;;;;;;5073042;28;19982;-82
2022/06/17 08:32:51;;;;;;;;;;;19.50;75.00;;;;;;5094613;28;20393;-82
2022/06/17 08:35:20;;;;;;;;;;;19.50;74.80;;;;;;5097457;28;20315;-82
2022/06/17 08:37:48;;;;;;;;;;;19.50;74.90;;;;;;5089957;28;20295;-82
2022/06/17 08:40:27;;;;;;;;;;;19.50;74.80;;;;;;5075849;28;20408;-82
2022/06/17 08:43:00;;;;;;;;;;;19.50;74.70;;;;;;5093302;28;19977;-82
2022/06/17 08:45:32;;;;;;;;;;;19.50;74.80;;;;;;5078075;28;19924;-82
2022/06/17 08:48:10;;;;;;;;;;;19.50;74.80;;;;;;5077115;28;19924;-82
2022/06/17 08:50:56;;;;;;;;;;;19.50;74.90;;;;;;5093642;28;19932;-82
2022/06/17 08:53:38;;;;;;;;;;;19.50;74.80;;;;;;5091671;28;20702;-82
2022/06/17 08:56:09;;;;;;;;;;;19.60;74.90;;;;;;5094479;28;19928;-81
2022/06/17 08:58:40;;;;;;;;;;;19.60;75.00;;;;;;5110408;28;19934;-82
2022/06/17 09:01:11;;;;;;;;;;;19.60;75.00;;;;;;5099410;28;19924;-82
2022/06/17 09:03:51;;;;;;;;;;;19.60;74.90;;;;;;5089793;28;19923;-82
2022/06/17 09:06:25;;;;;;;;;;;19.60;74.90;;;;;;5104063;28;19970;-82
2022/06/17 09:09:02;;;;;;;;;;;19.60;75.00;;;;;;5098842;28;20425;-82
2022/06/17 09:11:33;;;;;;;;;;;19.60;75.00;;;;;;5094616;28;19943;-82
2022/06/17 09:14:18;;;;;;;;;;;19.60;75.10;;;;;;5080188;28;19924;-82
2022/06/17 09:16:47;;;;;;;;;;;19.70;75.20;;;;;;5096938;28;19924;-82
2022/06/17 09:19:18;;;;;;;;;;;19.70;75.20;;;;;;5100281;28;19924;-82
2022/06/17 09:21:48;;;;;;;;;;;19.70;75.10;;;;;;5084818;28;20010;-82
2022/06/17 09:24:18;;;;;;;;;;;19.70;74.80;;;;;;5091251;28;20018;-81
2022/06/17 09:26:46;;;;;;;;;;;19.70;74.70;;;;;;5081688;28;19927;-81
2022/06/17 09:29:16;;;;;;;;;;;19.80;74.40;;;;;;5100812;28;19924;-81
2022/06/17 09:31:47;;;;;;;;;;;19.80;74.50;;;;;;5088243;28;19935;-82
2022/06/17 09:34:16;;;;;;;;;;;19.80;74.60;;;;;;5088111;28;19929;-81
2022/06/17 09:36:47;;;;;;;;;;;19.80;74.80;;;;;;5106071;28;19924;-81
2022/06/17 09:39:16;;;;;;;;;;;19.80;74.60;;;;;;5102160;28;19928;-81
2022/06/17 09:41:44;;;;;;;;;;;19.80;73.90;;;;;;5077026;28;19924;-81
2022/06/17 09:44:13;;;;;;;;;;;19.80;73.50;;;;;;5099499;28;19955;-81
2022/06/17 09:46:42;;;;;;;;;;;19.80;73.70;;;;;;5099955;28;20283;-82
2022/06/17 09:49:17;;;;;;;;;;;19.90;74.20;;;;;;5100162;28;19980;-81
2022/06/17 09:51:47;;;;;;;;;;;19.80;73.60;;;;;;5080766;28;19927;-81
2022/06/17 09:54:17;;;;;;;;;;;19.80;73.90;;;;;;5079396;28;19935;-81
2022/06/17 09:56:47;;;;;;;;;;;19.90;73.70;;;;;;5097991;28;19924;-81
2022/06/17 09:59:17;;;;;;;;;;;19.90;73.10;;;;;;5084851;28;19924;-82
2022/06/17 10:01:45;;;;;;;;;;;19.90;73.20;;;;;;5096446;28;19946;-81
2022/06/17 10:04:13;;;;;;;;;;;19.90;73.30;;;;;;5097086;28;19932;-81
2022/06/17 10:06:43;;;;;;;;;;;19.90;73.60;;;;;;5082478;28;19924;-81
2022/06/17 10:09:25;;;;;;;;;;;20.00;73.50;;;;;;5096960;28;19924;-82
2022/06/17 10:11:56;;;;;;;;;;;19.90;73.10;;;;;;5085435;28;19924;-81
2022/06/17 10:14:30;;;;;;;;;;;20.00;73.50;;;;;;5097342;28;19935;-81
2022/06/17 10:19:51;;;;;;;;;;;20.00;72.90;;;;;;5094630;28;19955;-82
2022/06/17 10:22:24;;;;;;;;;;;20.00;72.70;;;;;;5091258;28;19932;-82
2022/06/17 10:24:58;;;;;;;;;;;20.00;73.10;;;;;;5090140;28;19931;-81
2022/06/17 10:27:31;;;;;;;;;;;20.10;72.90;;;;;;5097133;28;20386;-81
2022/06/17 10:30:02;;;;;;;;;;;20.10;72.90;;;;;;5097992;28;20015;-81
2022/06/17 10:32:30;;;;;;;;;;;20.10;73.10;;;;;;5097027;28;19951;-82
2022/06/17 10:34:59;;;;;;;;;;;20.10;73.00;;;;;;5094081;28;19928;-82
2022/06/17 10:37:26;;;;;;;;;;;20.10;73.00;;;;;;5094695;28;19935;-82
2022/06/17 10:39:53;;;;;;;;;;;20.10;72.90;;;;;;5071061;28;19924;-82
2022/06/17 10:42:22;;;;;;;;;;;20.10;72.60;;;;;;5091877;28;19930;-81
2022/06/17 10:44:52;;;;;;;;;;;20.10;72.80;;;;;;5077058;28;19924;-81
2022/06/17 10:47:25;;;;;;;;;;;20.10;72.80;;;;;;5095077;28;19963;-82
2022/06/17 10:49:54;;;;;;;;;;;20.20;72.90;;;;;;5091240;28;19959;-81
2022/06/17 10:52:22;;;;;;;;;;;20.20;72.80;;;;;;5095932;28;19924;-81
2022/06/17 10:54:50;;;;;;;;;;;20.20;72.70;;;;;;5090723;28;19930;-81
2022/06/17 10:57:24;;;;;;;;;;;20.20;73.20;;;;;;5096397;28;20382;-81
2022/06/17 10:59:51;;;;;;;;;;;20.20;72.50;;;;;;5078857;28;19924;-82
2022/06/17 11:02:25;;;;;;;;;;;20.20;72.60;;;;;;5095058;28;19932;-81
2022/06/17 11:04:54;;;;;;;;;;;20.20;72.80;;;;;;5092128;28;20039;-82
2022/06/17 11:07:26;;;;;;;;;;;20.30;72.40;;;;;;5090219;28;19928;-82
2022/06/17 11:09:55;;;;;;;;;;;20.30;72.70;;;;;;5092091;28;19931;-82
2022/06/17 11:12:29;;;;;;;;;;;20.30;72.20;;;;;;5098584;28;19928;-82
2022/06/17 11:15:03;;;;;;;;;;;20.30;71.80;;;;;;5089880;28;19969;-82
2022/06/17 11:17:32;;;;;;;;;;;20.30;72.00;;;;;;5092895;28;19924;-81
2022/06/17 11:20:03;;;;;;;;;;;20.40;72.10;;;;;;5095778;28;19959;-82
2022/06/17 11:22:33;;;;;;;;;;;20.40;72.40;;;;;;5092217;28;19993;-82
2022/06/17 11:25:07;;;;;;;;;;;20.40;72.80;;;;;;5073358;28;19932;-82
2022/06/17 11:27:37;;;;;;;;;;;20.40;76.00;;;;;;5091794;28;20287;-82
2022/06/17 11:30:24;;;;;;;;;;;20.50;78.90;;;;;;5095838;28;19946;-82
2022/06/17 11:32:55;;;;;;;;;;;20.50;95.00;;;;;;5073964;28;19924;-82
2022/06/17 11:35:26;;;;;;;;;;;20.50;72.20;;;;;;5071130;28;20019;-82
2022/06/17 11:37:55;;;;;;;;;;;20.50;72.00;;;;;;5091957;28;19928;-82
2022/06/17 11:40:23;;;;;;;;;;;20.60;72.10;;;;;;5098428;28;19932;-82
2022/06/17 11:42:53;;;;;;;;;;;20.60;72.40;;;;;;5088943;28;19931;-82
2022/06/17 11:45:22;;;;;;;;;;;20.60;72.40;;;;;;5092799;28;19974;-81
2022/06/17 11:47:52;;;;;;;;;;;20.60;72.40;;;;;;5089495;28;20402;-82
2022/06/17 11:50:20;;;;;;;;;;;20.60;72.50;;;;;;5072171;28;19963;-82
2022/06/17 11:52:48;;;;;;;;;;;20.70;72.40;;;;;;5073728;28;19931;-82
2022/06/17 11:55:16;;;;;;;;;;;20.80;72.60;;;;;;5093578;28;19924;-81
2022/06/17 11:57:43;;;;;;;;;;;20.80;72.80;;;;;;5097770;28;19931;-81
2022/06/17 12:00:24;;;;;;;;;;;20.80;73.20;;;;;;5096297;28;20004;-82
2022/06/17 12:02:55;;;;;;;;;;;20.80;72.90;;;;;;5094151;28;20334;-82
2022/06/17 12:05:23;;;;;;;;;;;20.80;72.40;;;;;;5073091;28;19931;-82
2022/06/17 12:07:52;;;;;;;;;;;20.90;72.70;;;;;;5091316;28;19935;-82
2022/06/17 12:10:36;;;;;;;;;;;20.90;72.60;;;;;;5091876;28;19932;-81
2022/06/17 12:13:04;;;;;;;;;;;21.00;72.50;;;;;;5095101;28;19924;-81
2022/06/17 12:15:38;;;;;;;;;;;21.00;72.50;;;;;;5072003;28;19928;-82
2022/06/17 12:18:06;;;;;;;;;;;21.00;72.60;;;;;;5071895;28;19959;-82
2022/06/17 12:20:38;;;;;;;;;;;21.10;72.80;;;;;;5075807;28;19925;-81
2022/06/17 12:23:07;;;;;;;;;;;21.10;72.70;;;;;;5089923;28;19932;-81
2022/06/17 12:25:38;;;;;;;;;;;21.20;71.80;;;;;;5090500;28;19929;-82
2022/06/17 12:28:11;;;;;;;;;;;21.20;71.80;;;;;;5093530;28;19951;-81
2022/06/17 12:30:44;;;;;;;;;;;21.30;72.20;;;;;;5068422;28;19928;-81
2022/06/17 12:33:13;;;;;;;;;;;21.30;72.50;;;;;;5090203;28;19928;-82
2022/06/17 12:35:43;;;;;;;;;;;21.30;72.40;;;;;;5091111;28;19928;-82
2022/06/17 12:38:11;;;;;;;;;;;21.40;72.60;;;;;;5074412;28;19924;-82
2022/06/17 12:40:44;;;;;;;;;;;21.50;72.40;;;;;;5077538;28;19931;-81
2022/06/17 12:43:14;;;;;;;;;;;21.50;72.60;;;;;;5089542;28;21954;-81
2022/06/17 12:45:46;;;;;;;;;;;21.50;72.30;;;;;;5092833;28;19924;-82
2022/06/17 12:48:18;;;;;;;;;;;21.60;72.30;;;;;;5073131;28;19936;-82
2022/06/17 12:53:37;;;;;;;;;;;21.70;72.50;;;;;;5089723;28;19950;-81
2022/06/17 12:56:19;;;;;;;;;;;21.70;72.50;;;;;;5093619;28;19932;-81
2022/06/17 12:59:00;;;;;;;;;;;21.80;72.40;;;;;;5108376;28;19945;-81
2022/06/17 13:01:34;;;;;;;;;;;21.80;73.10;;;;;;5106621;28;19928;-81
2022/06/17 13:04:14;;;;;;;;;;;21.90;72.30;;;;;;5084786;28;19947;-81
2022/06/17 13:06:47;;;;;;;;;;;21.90;72.30;;;;;;5080252;28;19935;-80
2022/06/17 13:09:18;;;;;;;;;;;21.90;72.30;;;;;;5101439;28;19924;-82
2022/06/17 13:11:48;;;;;;;;;;;22.00;72.40;;;;;;5102206;28;19932;-80
2022/06/17 13:14:23;;;;;;;;;;;22.00;71.30;;;;;;5079730;28;19932;-81
2022/06/17 13:16:55;;;;;;;;;;;22.10;70.90;;;;;;5084835;28;20436;-81
2022/06/17 13:19:27;;;;;;;;;;;22.20;71.30;;;;;;5103087;28;20386;-81
2022/06/17 13:21:58;;;;;;;;;;;22.20;71.70;;;;;;5102304;28;19924;-81
2022/06/17 13:24:31;;;;;;;;;;;22.30;72.10;;;;;;5098130;28;20275;-81
2022/06/17 13:27:02;;;;;;;;;;;22.30;71.00;;;;;;5080399;28;20108;-80
2022/06/17 13:29:35;;;;;;;;;;;22.40;70.90;;;;;;5101023;28;20504;-81
2022/06/17 13:32:06;;;;;;;;;;;22.50;70.50;;;;;;5096491;28;19931;-81
2022/06/17 13:34:35;;;;;;;;;;;22.50;70.10;;;;;;5083056;28;19928;-81
2022/06/17 13:37:05;;;;;;;;;;;22.60;70.80;;;;;;5096772;28;19924;-81
2022/06/17 13:39:35;;;;;;;;;;;22.70;71.50;;;;;;5100327;28;19924;-81
2022/06/17 13:42:03;;;;;;;;;;;22.70;70.90;;;;;;5099639;28;19932;-81
2022/06/17 13:44:35;;;;;;;;;;;22.80;71.30;;;;;;5099576;28;20024;-81
2022/06/17 13:47:07;;;;;;;;;;;22.80;71.70;;;;;;5079295;28;20627;-81
2022/06/17 13:49:40;;;;;;;;;;;22.80;71.60;;;;;;5086362;28;20303;-81
2022/06/17 13:52:12;;;;;;;;;;;22.90;69.80;;;;;;5097075;28;19958;-81
2022/06/17 13:54:44;;;;;;;;;;;23.00;69.80;;;;;;5108486;28;19991;-81
2022/06/17 13:57:14;;;;;;;;;;;23.10;70.50;;;;;;5083420;28;19924;-81
2022/06/17 13:59:43;;;;;;;;;;;23.10;70.90;;;;;;5102564;28;19995;-81
2022/06/17 14:02:20;;;;;;;;;;;23.10;71.30;;;;;;5101132;28;19954;-81
2022/06/17 14:05:06;;;;;;;;;;;23.20;71.50;;;;;;5099101;28;19924;-80
2022/06/17 14:07:48;;;;;;;;;;;23.20;71.60;;;;;;5097575;28;19928;-81
2022/06/17 14:10:33;;;;;;;;;;;23.30;71.40;;;;;;5100598;28;19992;-80
2022/06/17 14:13:00;;;;;;;;;;;23.30;71.40;;;;;;5097611;28;19928;-80
2022/06/17 14:15:29;;;;;;;;;;;23.40;68.20;;;;;;5099592;28;19952;-81
2022/06/17 14:18:01;;;;;;;;;;;23.50;68.20;;;;;;5101717;28;19924;-81
2022/06/17 14:20:32;;;;;;;;;;;23.60;68.00;;;;;;5099701;28;19928;-81
2022/06/17 14:23:01;;;;;;;;;;;23.60;69.00;;;;;;5091135;28;19967;-80
2022/06/17 14:25:43;;;;;;;;;;;23.70;68.20;;;;;;5084919;28;19934;-80
2022/06/17 14:28:25;;;;;;;;;;;23.70;68.90;;;;;;5098583;28;19935;-81
2022/06/17 14:31:08;;;;;;;;;;;23.80;69.90;;;;;;5082260;28;19934;-81
2022/06/17 14:33:56;;;;;;;;;;;23.80;69.10;;;;;;5100064;28;19924;-81
2022/06/17 14:36:38;;;;;;;;;;;23.90;66.90;;;;;;5070017;28;19931;-81
2022/06/17 14:39:10;;;;;;;;;;;24.00;67.40;;;;;;5076492;28;20401;-81
2022/06/17 14:44:26;;;;;;;;;;;24.20;66.80;;;;;;5093248;28;20548;-81
2022/06/17 14:47:12;;;;;;;;;;;24.20;68.30;;;;;;5097346;28;19932;-81
2022/06/17 14:49:39;;;;;;;;;;;24.20;67.50;;;;;;5093439;28;19930;-80
2022/06/17 14:52:20;;;;;;;;;;;24.30;68.00;;;;;;5091510;28;19946;-81
2022/06/17 14:54:58;;;;;;;;;;;24.40;68.60;;;;;;5075662;28;20394;-81